Davey, NE (68336)

8:25 AM CDT on September 21, 2014 (GMT -0500)
WD0AOP/KC0VET | Change Station
CLOSE
Current Station
Personal Weather Station
Location: Davey, NE
Elevation: 1273 ft
Nearby Weather Stations

Elev 1273 ft 41.00 °N, 96.67 °W | Updated 1 minute ago

Clear
Clear
57.1 °F
Feels Like 57.1 °F
N
1.0
Wind Variable Wind from WNW
Gusts 2.0 mph

Today
High -- | Low -- °F
--% Chance of Precip.
Yesterday
High -- | Low -- °F
Precip. -- in
7:13 AM 7:25 PM
Waning Crescent, 7% visible
Pressure 30.20 in
Visibility 10.0 miles
Clouds Clear
Dew Point 49 °F
Humidity 74%
Rainfall 0.00 in
Snow Depth Not available.
UV 0 out of 12
Pollen 6.10 out of 12
Air Quality Not available.
Flu Activity Not available.
METAR KLNK 211254Z 34007KT 10SM CLR 13/08 A3022 RMK AO2 SLP226 T01280083

More Conditions Fewer Conditions

Pressure 30.20 in
Visibility 10.0 miles
Clouds Clear
Dew Point 49 °F
Humidity 74%
Rainfall 0.00 in
Snow Depth Not available.
UV 0 out of 12
Pollen 6.10 out of 12
Air Quality Not available.
Flu Activity Not available.
METAR KLNK 211254Z 34007KT 10SM CLR 13/08 A3022 RMK AO2 SLP226 T01280083

More Conditions Fewer Conditions

10-Day Weather Forecast

Almanac

Astronomy

Sep. 21, 2014 Rise Set
Actual Time 7:13 AM CDT 7:25 PM CDT
Civil Twilight 6:45 AM CDT 7:52 PM CDT
Nautical Twilight 6:13 AM CDT 8:25 PM CDT
Astronomical Twilight 5:40 AM CDT 8:57 PM CDT
Moon 4:47 AM CDT 6:02 PM CDT
Length of Visible Light 13h 07m
Length of Day
12h 12m
Tomorrow will be 2m 42s shorter.
Waning Crescent, 7% of the Moon is Illuminated
Today
Waning Crescent
Sep 24
New
Oct 1
First Quarter
Oct 8
Full
Oct 15
Last Quarter

Today's Extremes

State Highs State Lows

Community

WunderPhotos

Upload Photos

1,755,138 photos uploaded!

WunderBlogs® & News

Nearby

Snow Depth

Station Depth Elevation
No new snow has been reported.

Earthquake Activity

City Distance Mag. Time & Date
No recent earthquake activity has been reported nearby.
Minimum magnitude displayed is 2.5.

Coastal Water Temperatures

Place Temperature
No Stations Reporting

Nearby Weather Stations